Latest Weather Observations for Hindmarsh Island

IDS60901

Issued at 6:35 pm CDT Monday 20 October 2014 (issued every 10 minutes, with the page automatically refreshed every 10 minutes)

About weather observations | Map of Adelaide area stations | Latest observations for Adelaide area | Other Formats
Station Details ID: 023894 Name: HINDMARSH ISLAND AWS Lat: -35.52 Lon: 138.82 Height: 11.0 m
Data from the previous 72 hours. | See also: Recent months at Hindmarsh Island
Date/Time
CDT
Tmp

°C
App
Tmp
°C
Dew
Point
°C
Rel
Hum
%
Delta-T

°C
Wind Press
QNH
hPa
Press
MSL
hPa
Rain
since
9 am
mm
Dir
 
Spd
km/h
Gust
km/h
Spd
kts
Gust
kts
20/06:30pm 17.8 15.7 12.3 70 3.0 SSE 15 19 8 10 1021.9 - 0.0
20/06:00pm 17.9 14.7 11.9 68 3.3 SE 20 24 11 13 1022.0 1021.9 0.0
20/05:30pm 18.7 14.4 12.0 65 3.7 SE 26 30 14 16 1022.0 - 0.0
20/05:00pm 18.4 13.9 12.6 69 3.2 SSE 28 35 15 19 1022.2 - 0.0
20/04:30pm 17.9 12.5 12.1 69 3.2 SSE 32 39 17 21 1022.2 - 0.0
20/04:00pm 17.8 12.2 12.0 69 3.2 SSE 33 37 18 20 1022.3 - 0.0
20/03:30pm 19.2 13.9 12.5 65 3.7 SSE 32 35 17 19 1022.7 - 0.0
20/03:00pm 19.6 14.4 11.6 60 4.4 SSE 30 33 16 18 1023.0 1023.0 0.0
20/02:30pm 20.9 16.9 11.8 56 5.1 SSE 24 32 13 17 1023.5 - 0.0
20/02:00pm 24.1 18.6 7.7 35 8.6 ENE 26 33 14 18 1023.9 - 0.0
20/01:30pm 23.0 17.2 7.9 38 7.9 ENE 28 37 15 20 1024.4 - 0.0
20/01:00pm 21.5 16.1 8.1 42 7.0 ENE 26 33 14 18 1024.7 - 0.0
20/12:30pm 20.9 15.2 8.5 45 6.5 ENE 28 37 15 20 1025.2 - 0.0
20/12:00pm 19.7 14.2 9.3 51 5.5 ENE 28 37 15 20 1025.6 1025.6 0.0
20/11:30am 18.9 13.0 9.1 53 5.1 ENE 30 37 16 20 1025.9 - 0.0
20/11:00am 17.2 11.3 8.9 58 4.3 ENE 30 41 16 22 1026.4 - 0.0
20/10:30am 16.8 11.6 9.0 60 4.0 ENE 26 37 14 20 1026.8 - 0.0
20/10:00am 17.1 12.7 9.0 59 4.2 ENE 22 30 12 16 1026.9 - 0.0
20/09:30am 15.5 11.1 9.0 65 3.3 E 22 30 12 16 1027.1 - 0.0
20/09:00am 14.1 9.7 9.1 72 2.5 E 22 28 12 15 1027.3 1027.3 0.0
20/08:30am 13.3 8.5 9.0 75 2.2 E 24 30 13 16 1027.5 - 0.0
20/08:00am 12.9 8.6 9.4 79 1.8 E 22 28 12 15 1027.3 - 0.0
20/07:30am 11.4 7.9 8.8 84 1.3 E 17 20 9 11 1026.9 - 0.0
20/07:00am 10.9 7.3 8.5 85 1.2 E 17 20 9 11 1026.7 - 0.0
20/06:30am 10.4 6.7 8.0 85 1.2 E 17 20 9 11 1026.4 - 0.0
20/06:00am 10.7 7.4 8.1 84 1.3 E 15 17 8 9 1026.2 1026.2 0.0
20/05:30am 11.5 7.0 8.5 82 1.5 E 22 28 12 15 1026.0 - 0.0
20/05:00am 11.2 7.3 8.6 84 1.3 E 19 24 10 13 1025.9 - 0.0
20/04:30am 10.6 7.3 8.2 85 1.2 E 15 17 8 9 1025.7 - 0.0
20/04:00am 11.1 7.5 8.5 84 1.3 E 17 20 9 11 1025.4 - 0.0
20/03:30am 11.4 8.6 8.4 82 1.5 E 13 15 7 8 1025.6 - 0.0
20/03:00am 12.6 8.9 9.4 81 1.6 ESE 19 24 10 13 1025.6 1025.6 0.0
20/02:30am 12.7 9.8 9.5 81 1.6 E 15 19 8 10 1025.6 - 0.0
20/02:00am 13.7 9.5 9.9 78 2.0 ESE 22 28 12 15 1025.7 - 0.0
20/01:30am 14.4 9.3 10.6 78 2.0 SE 28 33 15 18 1025.8 - 0.0
20/01:00am 14.6 9.2 10.8 78 2.0 SE 30 35 16 19 1025.7 - 0.0
20/12:30am 14.7 10.2 11.3 80 1.8 SE 26 33 14 18 1026.0 - 0.0
20/12:00am 14.8 9.2 11.4 80 1.8 SE 32 37 17 20 1025.8 1025.8 0.0
 
Date/Time
CDT
Tmp

°C
App
Tmp
°C
Dew
Point
°C
Rel
Hum
%
Delta-T

°C
Wind Press
QNH
hPa
Press
MSL
hPa
Rain
since
9 am
mm
Dir
 
Spd
km/h
Gust
km/h
Spd
kts
Gust
kts
19/11:30pm 14.9 9.7 11.5 80 1.8 SE 30 35 16 19 1025.9 - 0.0
19/11:00pm 15.1 9.4 11.7 80 1.8 SSE 33 37 18 20 1025.6 - 0.0
19/10:30pm 15.3 10.5 11.7 79 1.9 SSE 28 33 15 18 1025.6 - 0.0
19/10:00pm 15.1 10.3 11.7 80 1.8 SSE 28 33 15 18 1025.6 - 0.0
19/09:30pm 15.3 10.3 12.2 82 1.7 S 30 37 16 20 1025.4 - 0.0
19/09:00pm 15.3 10.7 12.4 83 1.6 S 28 35 15 19 1025.2 1025.3 0.0
19/08:30pm 15.3 10.3 12.1 81 1.7 S 30 33 16 18 1025.1 - 0.0
19/08:00pm 15.4 10.4 12.3 82 1.7 S 30 33 16 18 1024.7 - 0.0
19/07:30pm 15.2 11.6 11.8 80 1.8 S 22 28 12 15 1024.5 - 0.0
19/07:00pm 15.6 11.7 12.0 79 2.0 S 24 30 13 16 1024.1 - 0.0
19/06:30pm 15.9 10.2 11.9 77 2.2 SSE 33 39 18 21 1023.8 - 0.0
19/06:00pm 15.9 9.7 11.5 75 2.4 S 35 43 19 23 1023.8 1023.7 0.0
19/05:30pm 16.1 9.4 12.3 78 2.1 S 39 46 21 25 1023.4 - 0.0
19/05:00pm 16.5 10.6 12.5 77 2.2 S 35 44 19 24 1023.2 - 0.0
19/04:30pm 16.9 10.8 13.0 78 2.2 S 37 43 20 23 1023.0 - 0.0
19/04:00pm 17.2 11.5 13.1 77 2.3 S 35 41 19 22 1022.7 - 0.0
19/03:30pm 17.4 11.5 13.5 78 2.2 SSW 37 43 20 23 1022.3 - 0.0
19/03:00pm 19.2 15.2 14.2 73 2.9 SSW 28 35 15 19 1021.8 1021.8 0.0
19/02:30pm 19.3 15.7 14.3 73 2.9 SSW 26 33 14 18 1021.5 - 0.0
19/02:00pm 19.3 15.5 14.6 74 2.7 SSW 28 32 15 17 1021.6 - 0.0
19/01:30pm 19.6 15.4 14.6 73 2.9 SSW 30 35 16 19 1021.3 - 0.0
19/01:00pm 21.3 17.0 12.2 56 5.1 SW 26 33 14 18 1021.1 - 0.0
19/12:30pm 24.3 18.4 9.1 38 8.2 SSW 30 41 16 22 1020.8 - 0.0
19/12:23pm 25.2 19.3 7.3 32 9.4 SW 28 37 15 20 1020.6 - 0.0
19/12:00pm 30.1 22.2 -1.3 13 14.6 NW 30 37 16 20 1020.0 1019.9 0.0
19/11:30am 29.1 22.0 -1.1 14 14.1 NW 26 33 14 18 1020.2 - 0.0
19/11:00am 28.5 21.7 -1.6 14 13.8 NW 24 32 13 17 1020.2 - 0.0
19/10:30am 28.4 22.0 -1.6 14 13.8 NNW 22 35 12 19 1020.0 - 0.0
19/10:00am 27.9 23.2 -2.0 14 13.6 NNW 13 19 7 10 1020.0 - 0.0
19/09:30am 28.8 24.3 -0.4 15 13.7 NW 13 20 7 11 1020.0 - 0.0
19/09:00am 25.7 23.1 3.0 23 11.1 W 6 15 3 8 1019.8 1019.8 0.0
19/08:30am 23.8 20.4 2.0 24 10.3 N 9 11 5 6 1019.6 - 0.0
19/08:00am 19.7 18.8 9.3 51 5.5 NW 4 9 2 5 1019.3 - 0.0
19/07:30am 19.3 16.7 6.1 42 6.5 W 9 11 5 6 1018.9 - 0.0
19/07:00am 19.2 14.3 4.2 37 7.2 N 19 20 10 11 1018.2 - 0.0
19/06:30am 14.3 12.4 7.6 64 3.3 ESE 7 9 4 5 1017.8 - 0.0
19/06:00am 14.1 13.3 8.1 67 3.0 E 2 7 1 4 1017.4 1017.4 0.0
19/05:30am 13.4 11.6 7.2 66 3.0 ESE 6 13 3 7 1017.2 - 0.0
19/05:00am 14.1 11.6 4.9 54 4.3 E 7 11 4 6 1017.1 - 0.0
19/04:30am 16.0 14.2 7.2 56 4.4 ESE 6 7 3 4 1017.0 - 0.0
19/04:00am 16.9 13.0 3.6 41 6.2 N 13 15 7 8 1017.3 - 0.0
19/03:30am 17.1 12.5 3.8 41 6.2 N 17 20 9 11 1017.2 - 0.0
19/03:00am 16.3 12.1 4.0 44 5.7 N 15 17 8 9 1017.6 1017.7 0.0
19/02:30am 16.1 12.8 4.5 46 5.4 N 11 13 6 7 1018.0 - 0.0
19/02:00am 15.9 12.9 5.8 51 4.9 N 11 13 6 7 1018.5 - 0.0
19/01:30am 15.3 11.8 7.1 58 4.0 N 15 15 8 8 1018.8 - 0.0
19/01:00am 16.0 13.4 9.4 65 3.4 N 13 15 7 8 1019.0 - 0.0
19/12:30am 16.1 14.1 10.0 67 3.2 NNW 11 13 6 7 1019.4 - 0.0
19/12:00am 16.1 14.4 10.0 67 3.2 N 9 11 5 6 1019.5 1019.6 0.0
 
Date/Time
CDT
Tmp

°C
App
Tmp
°C
Dew
Point
°C
Rel
Hum
%
Delta-T

°C
Wind Press
QNH
hPa
Press
MSL
hPa
Rain
since
9 am
mm
Dir
 
Spd
km/h
Gust
km/h
Spd
kts
Gust
kts
18/11:30pm 16.2 15.3 11.4 73 2.6 S 7 11 4 6 1019.8 - 0.0
18/11:00pm 16.6 14.8 10.9 69 3.1 SSW 11 15 6 8 1019.9 - 0.0
18/10:30pm 17.5 16.8 10.1 62 3.9 W 4 7 2 4 1020.0 - 0.0
18/10:00pm 17.4 15.8 10.1 62 3.9 ENE 9 19 5 10 1019.8 - 0.0
18/09:30pm 19.1 15.9 9.9 55 4.9 WSW 17 22 9 12 1019.3 - 0.0
18/09:00pm 19.9 17.0 9.5 51 5.5 WSW 15 20 8 11 1019.4 1019.3 0.0
18/08:30pm 20.9 17.7 10.1 50 5.8 W 17 20 9 11 1019.2 - 0.0
18/08:00pm 20.1 17.2 9.7 51 5.6 WSW 15 20 8 11 1019.0 - 0.0
18/07:30pm 21.1 17.9 8.4 44 6.7 SW 15 19 8 10 1018.6 - 0.0
18/07:16pm 22.9 19.3 6.6 35 8.4 SW 15 20 8 11 1018.4 - 0.0
18/07:00pm 28.1 23.4 -1.9 14 13.7 NW 13 15 7 8 1018.1 - 0.0
18/06:30pm 28.8 24.0 -2.3 13 14.1 NNW 13 17 7 9 1018.1 - 0.0
18/06:00pm 30.1 24.2 -2.4 12 14.9 NW 19 26 10 14 1018.1 1018.1 0.0
18/05:30pm 30.2 24.0 -3.5 11 15.2 NW 20 30 11 16 1018.0 - 0.0
18/05:00pm 29.3 23.3 -1.9 13 14.3 WNW 20 28 11 15 1017.9 - 0.0
18/04:30pm 29.7 22.2 -1.6 13 14.5 WNW 28 41 15 22 1017.9 - 0.0
18/04:00pm 31.6 24.4 -2.4 11 15.8 NW 26 43 14 23 1018.0 - 0.0
18/03:30pm 30.4 22.3 -3.3 11 15.2 NW 30 41 16 22 1018.1 - 0.0
18/03:00pm 30.2 21.6 -2.3 12 14.9 NW 33 44 18 24 1018.3 1018.4 0.0
18/02:30pm 30.2 21.3 -2.3 12 14.9 NW 35 52 19 28 1018.5 - 0.0
18/02:00pm 30.1 21.5 -2.4 12 14.9 NW 33 48 18 26 1018.7 - 0.0
18/01:30pm 29.1 19.8 -2.1 13 14.3 NW 37 50 20 27 1018.7 - 0.0
18/01:06pm 28.8 20.8 -2.3 13 14.1 NNW 30 50 16 27 1018.6 - 0.0
18/01:00pm 29.2 20.7 -2.0 13 14.3 NNW 33 46 18 25 1018.6 - 0.0
18/12:31pm 30.1 20.9 -1.3 13 14.7 NW 37 56 20 30 1018.6 - 0.0
18/12:30pm 30.1 20.5 -1.3 13 14.7 NW 39 56 21 30 1018.6 - 0.0
18/12:05pm 29.6 19.5 -2.8 12 14.7 NNW 41 59 22 32 1018.9 - 0.0
18/12:00pm 29.6 19.1 -2.8 12 14.7 NW 43 56 23 30 1019.2 1019.1 0.0
18/11:41am 29.9 20.9 -2.6 12 14.8 NNW 35 56 19 30 1019.3 - 0.0
18/11:30am 29.8 20.2 -1.5 13 14.5 NNW 39 54 21 29 1019.4 - 0.0
18/11:05am 29.5 21.9 -1.8 13 14.4 NW 28 46 15 25 1019.6 - 0.0
18/11:00am 29.7 22.6 -1.6 13 14.5 NNW 26 41 14 22 1019.7 - 0.0
18/10:30am 28.8 22.1 -1.3 14 13.9 NNW 24 37 13 20 1020.0 - 0.0
18/10:00am 26.0 21.4 3.9 24 11.0 NNE 17 24 9 13 1020.2 - 0.0
18/09:30am 23.2 17.5 4.7 30 9.2 NNE 24 30 13 16 1020.0 - 0.0
18/09:00am 21.4 15.9 4.0 32 8.4 NNE 22 28 12 15 1020.0 1020.1 0.0
18/08:30am 18.9 13.2 3.1 35 7.4 NNE 22 26 12 14 1020.5 - 0.0
18/08:00am 16.6 11.9 5.3 47 5.4 NE 19 22 10 12 1020.9 - 0.0
18/07:30am 15.2 10.7 6.0 54 4.4 N 19 24 10 13 1020.8 - 0.0
18/07:00am 14.7 9.7 4.7 51 4.7 NNE 20 24 11 13 1020.4 - 0.0
18/06:30am 14.4 8.9 6.0 57 4.0 NNE 24 32 13 17 1019.8 - 0.0
18/06:00am 14.5 9.5 4.8 52 4.5 NNE 20 26 11 14 1019.5 1019.5 0.0
18/05:30am 15.0 10.1 5.0 51 4.7 NNE 20 24 11 13 1019.5 - 0.0
18/05:00am 14.6 9.7 4.9 52 4.5 NNE 20 24 11 13 1019.4 - 0.0
18/04:30am 13.4 8.7 5.3 58 3.8 NE 19 22 10 12 1019.6 - 0.0
18/04:00am 13.2 8.6 5.4 59 3.6 NNE 19 22 10 12 1019.7 - 0.0
18/03:30am 13.6 9.0 5.5 58 3.8 NNE 19 22 10 12 1019.8 - 0.0
18/03:00am 14.0 8.8 5.6 57 4.0 NNE 22 28 12 15 1019.9 1019.9 0.0
18/02:30am 13.6 9.1 6.9 64 3.2 N 20 24 11 13 1020.1 - 0.0
18/02:00am 13.4 8.6 5.8 60 3.6 N 20 24 11 13 1020.5 - 0.0
18/01:30am 14.2 9.7 6.8 61 3.6 NNE 20 22 11 12 1020.7 - 0.0
18/01:00am 13.4 9.8 8.5 72 2.4 NNE 17 19 9 10 1020.7 - 0.0
18/12:30am 14.1 11.4 9.1 72 2.5 NNE 13 15 7 8 1021.1 - 0.0
18/12:00am 14.9 11.9 9.1 68 3.0 NNE 15 17 8 9 1021.3 1021.3 0.0
 
Date/Time
CDT
Tmp

°C
App
Tmp
°C
Dew
Point
°C
Rel
Hum
%
Delta-T

°C
Wind Press
QNH
hPa
Press
MSL
hPa
Rain
since
9 am
mm
Dir
 
Spd
km/h
Gust
km/h
Spd
kts
Gust
kts
17/11:30pm 15.4 12.1 9.7 69 3.0 N 17 17 9 9 1021.5 - 0.0
17/11:00pm 15.5 12.3 10.1 70 2.8 N 17 20 9 11 1021.5 - 0.0
17/10:30pm 15.9 13.3 9.3 65 3.4 NNE 13 17 7 9 1022.0 - 0.0
17/10:00pm 16.0 12.1 8.5 61 3.8 NE 19 24 10 13 1021.9 - 0.0
17/09:30pm 14.9 12.3 9.5 70 2.8 ENE 13 17 7 9 1022.2 - 0.0
17/09:00pm 16.0 14.3 9.9 67 3.2 ENE 9 11 5 6 1022.1 1022.1 0.0
17/08:30pm 15.9 14.7 10.4 70 2.9 NNE 7 9 4 5 1021.7 - 0.0
17/08:00pm 15.8 13.0 10.1 69 3.0 E 15 20 8 11 1021.6 - 0.0
17/07:30pm 17.2 13.6 11.7 70 3.0 ESE 22 26 12 14 1021.4 - 0.0
17/07:00pm 18.1 14.6 12.1 68 3.3 SE 22 26 12 14 1021.3 - 0.0

Latest Capital City Observations: Canberra | Sydney | Melbourne | Brisbane | Adelaide | Perth | Hobart | Darwin

Other Formats:

Comma delimited format used in spreadsheet applications
http://www.bom.gov.au/fwo/IDS60901/IDS60901.94677.axf

JavaScript Object Notation format (JSON) in row-major order
http://www.bom.gov.au/fwo/IDS60901/IDS60901.94677.json